Time;durP1;ratioP1;P1;durP2;ratioP2;P2;SDS_P1;SDS_P2;PMS_P1;PMS_P2;Temp;Humidity;BMP_temperature;BMP_pressure;BME280_temperature;BME280_humidity;BME280_pressure;Samples;Min_cycle;Max_cycle;Signal;HPM_P1;HPM_P2
2022/05/22 00:01:06;;;;;;;7.87;2.93;;;;;;;-146.64;100.00;118402.03;5047996;28;20024;-80
2022/05/22 00:03:32;;;;;;;10.98;4.10;;;;;;;-146.64;100.00;118402.03;5037125;28;20021;-82
2022/05/22 00:05:57;;;;;;;13.35;2.97;;;;;;;-146.64;100.00;118402.03;5063642;28;20040;-81
2022/05/22 00:08:23;;;;;;;8.68;3.42;;;;;;;-146.64;100.00;118402.03;5049437;28;20365;-81
2022/05/22 00:10:48;;;;;;;14.50;4.80;;;;;;;-146.64;100.00;118402.03;5063745;28;20028;-81
2022/05/22 00:13:13;;;;;;;11.00;4.17;;;;;;;-146.64;100.00;118402.03;5051535;28;20047;-82
2022/05/22 00:16:36;;;;;;;8.37;3.60;;;;;;;-146.64;100.00;118402.03;5048296;28;20069;-80
2022/05/22 00:18:24;;;;;;;11.38;3.90;;;;;;;-146.64;100.00;118402.03;5069308;28;21745;-82
2022/05/22 00:20:50;;;;;;;16.30;4.30;;;;;;;-146.64;100.00;118402.03;5051904;28;20059;-81
2022/05/22 00:23:15;;;;;;;8.63;3.83;;;;;;;-146.64;100.00;118402.03;5051087;28;20025;-81
2022/05/22 00:25:41;;;;;;;10.27;3.80;;;;;;;-146.64;100.00;118402.03;5052202;28;20044;-82
2022/05/22 00:28:06;;;;;;;12.53;4.33;;;;;;;-146.64;100.00;118402.03;5032755;28;20546;-81
2022/05/22 00:30:31;;;;;;;16.10;5.47;;;;;;;-146.64;100.00;118402.03;5063117;28;20357;-81
2022/05/22 00:32:57;;;;;;;14.40;4.60;;;;;;;-146.64;100.00;118402.03;5068778;28;20519;-80
2022/05/22 00:35:22;;;;;;;13.20;4.83;;;;;;;-146.64;100.00;118402.03;5049942;28;20535;-81
2022/05/22 00:37:48;;;;;;;15.63;4.50;;;;;;;-146.64;100.00;118402.03;5064779;28;20036;-82
2022/05/22 00:40:14;;;;;;;13.23;4.27;;;;;;;-146.64;100.00;118402.03;5051631;28;20031;-82
2022/05/22 00:42:42;;;;;;;12.70;4.50;;;;;;;-146.64;100.00;118402.03;5050587;28;20032;-81
2022/05/22 00:45:09;;;;;;;14.15;4.40;;;;;;;-146.64;100.00;118402.03;5053331;28;20081;-81
2022/05/22 00:47:34;;;;;;;11.88;4.80;;;;;;;-146.64;100.00;118402.03;5061464;28;20028;-81
2022/05/22 00:50:02;;;;;;;13.07;5.20;;;;;;;-146.64;100.00;118402.03;5070116;28;20146;-81
2022/05/22 00:52:31;;;;;;;13.70;5.53;;;;;;;-146.64;100.00;118402.03;5068466;28;20036;-80
2022/05/22 00:55:12;;;;;;;13.55;5.10;;;;;;;-146.64;100.00;118402.03;5059593;28;20024;-81
2022/05/22 00:57:40;;;;;;;12.75;5.32;;;;;;;-146.64;100.00;118402.03;5035734;28;20051;-80
2022/05/22 01:00:10;;;;;;;14.65;5.70;;;;;;;-146.64;100.00;118402.03;5055441;28;20455;-80
2022/05/22 01:05:20;;;;;;;22.42;5.70;;;;;;;-146.64;100.00;118402.03;5062561;28;20031;-80
2022/05/22 01:07:46;;;;;;;10.13;5.83;;;;;;;-146.64;100.00;118402.03;5052504;28;20032;-81
2022/05/22 01:10:12;;;;;;;17.55;5.53;;;;;;;-146.64;100.00;118402.03;5051269;28;20500;-81
2022/05/22 01:12:39;;;;;;;15.23;5.87;;;;;;;-146.64;100.00;118402.03;5069076;28;20041;-81
2022/05/22 01:15:04;;;;;;;;;;;;;;;-146.64;100.00;118402.03;5044945;28;20545;-81
2022/05/22 01:17:39;;;;;;;15.90;4.82;;;;;;;-146.64;100.00;118402.03;5034222;28;19968;-81
2022/05/22 01:20:05;;;;;;;11.52;4.90;;;;;;;-146.64;100.00;118402.03;5060851;28;20115;-80
2022/05/22 01:22:30;;;;;;;13.17;4.67;;;;;;;-146.64;100.00;118402.03;5050406;28;20501;-81
2022/05/22 01:24:57;;;;;;;11.30;4.37;;;;;;;-146.64;100.00;118402.03;5050849;28;20029;-81
2022/05/22 01:27:23;;;;;;;14.23;5.10;;;;;;;-146.64;100.00;118402.03;5050014;28;20437;-80
2022/05/22 01:29:49;;;;;;;22.13;6.37;;;;;;;-146.64;100.00;118402.03;5048784;28;20032;-81
2022/05/22 01:32:14;;;;;;;15.80;4.97;;;;;;;-146.64;100.00;118402.03;5059426;28;20020;-81
2022/05/22 01:34:40;;;;;;;16.93;5.40;;;;;;;-146.64;100.00;118402.03;5059063;28;20356;-80
2022/05/22 01:37:06;;;;;;;15.15;5.55;;;;;;;-146.64;100.00;118402.03;5047740;28;20037;-81
2022/05/22 01:39:32;;;;;;;11.15;4.88;;;;;;;-146.64;100.00;118402.03;5032230;28;20112;-81
2022/05/22 01:41:58;;;;;;;13.10;4.80;;;;;;;-146.64;100.00;118402.03;5068331;28;20043;-81
2022/05/22 01:44:24;;;;;;;12.77;5.30;;;;;;;-146.64;100.00;118402.03;5034036;28;20031;-81
2022/05/22 01:46:49;;;;;;;13.43;5.47;;;;;;;-146.64;100.00;118402.03;5046174;28;20430;-81
2022/05/22 01:49:15;;;;;;;13.87;5.23;;;;;;;-146.64;100.00;118402.03;5035350;28;20029;-80
2022/05/22 01:51:42;;;;;;;14.88;5.43;;;;;;;-146.64;100.00;118402.03;5051995;28;20077;-81
2022/05/22 01:54:09;;;;;;;10.77;5.22;;;;;;;-146.64;100.00;118402.03;5050425;28;20051;-81
2022/05/22 01:56:36;;;;;;;9.57;4.65;;;;;;;-146.64;100.00;118402.03;5054227;28;20029;-81
2022/05/22 01:59:03;;;;;;;;;;;;;;;-146.64;100.00;118402.03;5055157;28;20021;-81
2022/05/22 02:01:28;;;;;;;13.63;5.47;;;;;;;-146.64;100.00;118402.03;5053993;28;20001;-81
2022/05/22 02:03:54;;;;;;;16.07;6.43;;;;;;;-146.64;100.00;118402.03;5038056;28;20071;-81
2022/05/22 02:06:19;;;;;;;12.87;5.87;;;;;;;-146.64;100.00;118402.03;5036461;28;20054;-81
2022/05/22 02:08:44;;;;;;;10.77;4.87;;;;;;;-146.64;100.00;118402.03;5035989;28;20040;-81
2022/05/22 02:11:11;;;;;;;16.00;5.38;;;;;;;-146.64;100.00;118402.03;5027014;28;20016;-80
2022/05/22 02:13:39;;;;;;;19.15;5.55;;;;;;;-146.64;100.00;118402.03;5070498;28;20035;-81
2022/05/22 02:16:05;;;;;;;14.95;5.65;;;;;;;-146.64;100.00;118402.03;5050816;28;20395;-80
2022/05/22 02:18:31;;;;;;;12.43;5.73;;;;;;;-146.64;100.00;118402.03;5054979;28;20036;-80
2022/05/22 02:20:56;;;;;;;13.98;5.78;;;;;;;-146.64;100.00;118402.03;5071308;28;20059;-80
2022/05/22 02:23:22;;;;;;;15.63;5.97;;;;;;;-146.64;100.00;118402.03;5053215;28;20047;-80
2022/05/22 02:25:50;;;;;;;13.43;5.27;;;;;;;-146.64;100.00;118402.03;5042234;28;20482;-81
2022/05/22 02:28:17;;;;;;;19.38;5.45;;;;;;;-146.64;100.00;118402.03;5018612;28;20036;-80
2022/05/22 02:30:52;;;;;;;14.90;5.82;;;;;;;-146.64;100.00;118402.03;5052708;28;20024;-79
2022/05/22 02:33:18;;;;;;;14.30;5.53;;;;;;;-146.64;100.00;118402.03;5069266;28;20036;-81
2022/05/22 02:35:47;;;;;;;11.23;5.40;;;;;;;-146.64;100.00;118402.03;5035548;28;20028;-80
2022/05/22 02:38:13;;;;;;;11.98;5.13;;;;;;;-146.64;100.00;118402.03;5054062;28;20379;-81
2022/05/22 02:40:39;;;;;;;13.70;5.83;;;;;;;-146.64;100.00;118402.03;5053601;28;20041;-81
2022/05/22 02:43:04;;;;;;;17.50;6.07;;;;;;;-146.64;100.00;118402.03;5051095;28;20028;-80
2022/05/22 02:45:34;;;;;;;10.57;5.03;;;;;;;-146.64;100.00;118402.03;5033631;28;20112;-81
2022/05/22 02:48:00;;;;;;;10.20;5.00;;;;;;;-146.64;100.00;118402.03;5054122;28;20058;-81
2022/05/22 02:50:27;;;;;;;16.10;5.17;;;;;;;-146.64;100.00;118402.03;5072213;28;20154;-81
2022/05/22 02:52:53;;;;;;;13.52;5.07;;;;;;;-146.64;100.00;118402.03;5069092;28;20048;-80
2022/05/22 02:55:20;;;;;;;10.35;4.93;;;;;;;-146.64;100.00;118402.03;5053422;28;20115;-80
2022/05/22 02:57:46;;;;;;;11.55;4.53;;;;;;;-146.64;100.00;118402.03;5053460;28;20036;-80
2022/05/22 03:00:21;;;;;;;14.80;4.30;;;;;;;-146.64;100.00;118402.03;5051991;28;20033;-81
2022/05/22 03:02:46;;;;;;;12.73;4.55;;;;;;;-146.64;100.00;118402.03;5036833;28;20033;-80
2022/05/22 03:05:12;;;;;;;9.57;4.97;;;;;;;-146.64;100.00;118402.03;5035067;28;20040;-79
2022/05/22 03:07:38;;;;;;;10.73;4.82;;;;;;;-146.64;100.00;118402.03;5054203;28;20041;-80
2022/05/22 03:10:05;;;;;;;11.25;4.75;;;;;;;-146.64;100.00;118402.03;5070683;28;20082;-81
2022/05/22 03:12:31;;;;;;;8.10;4.13;;;;;;;-146.64;100.00;118402.03;5050461;28;20041;-80
2022/05/22 03:14:57;;;;;;;12.60;4.50;;;;;;;-146.64;100.00;118402.03;5059551;28;20479;-79
2022/05/22 03:17:24;;;;;;;13.80;4.95;;;;;;;-146.64;100.00;118402.03;5050374;28;20032;-80
2022/05/22 03:19:50;;;;;;;11.55;4.40;;;;;;;-146.64;100.00;118402.03;5053771;28;20506;-79
2022/05/22 03:22:16;;;;;;;10.90;4.23;;;;;;;-146.64;100.00;118402.03;5051920;28;20500;-79
2022/05/22 03:24:42;;;;;;;;;;;;;;;-146.64;100.00;118402.03;5052743;28;20103;-80
2022/05/22 03:27:10;;;;;;;12.30;4.95;;;;;;;-146.64;100.00;118402.03;5034995;28;19947;-80
2022/05/22 03:29:39;;;;;;;8.30;4.30;;;;;;;-146.64;100.00;118402.03;5045676;28;20029;-80
2022/05/22 03:32:05;;;;;;;12.70;4.28;;;;;;;-146.64;100.00;118402.03;5051042;28;20024;-79
2022/05/22 03:34:30;;;;;;;14.50;4.97;;;;;;;-146.64;100.00;118402.03;5033870;28;20527;-80
2022/05/22 03:36:55;;;;;;;11.43;4.93;;;;;;;-146.64;100.00;118402.03;5061216;28;20379;-80
2022/05/22 03:39:21;;;;;;;13.60;4.93;;;;;;;-146.64;100.00;118402.03;5052782;28;20067;-80
2022/05/22 03:41:47;;;;;;;13.00;4.65;;;;;;;-146.64;100.00;118402.03;5062414;28;20036;-81
2022/05/22 03:44:13;;;;;;;11.17;4.90;;;;;;;-146.64;100.00;118402.03;5036819;28;20107;-80
2022/05/22 03:46:39;;;;;;;9.48;5.03;;;;;;;-146.64;100.00;118402.03;5064418;28;20285;-80
2022/05/22 03:49:04;;;;;;;9.88;4.53;;;;;;;-146.64;100.00;118402.03;5052487;28;20378;-80
2022/05/22 03:51:30;;;;;;;11.93;5.05;;;;;;;-146.64;100.00;118402.03;5050577;28;20074;-80
2022/05/22 03:53:55;;;;;;;13.25;4.75;;;;;;;-146.64;100.00;118402.03;5065243;28;20116;-80
2022/05/22 03:56:21;;;;;;;15.97;4.90;;;;;;;-146.64;100.00;118402.03;5045001;28;20106;-80
2022/05/22 03:58:47;;;;;;;11.32;4.95;;;;;;;-146.64;100.00;118402.03;5068216;28;20055;-80
2022/05/22 04:01:14;;;;;;;13.27;5.33;;;;;;;-146.64;100.00;118402.03;5047876;28;20120;-79
2022/05/22 04:03:40;;;;;;;12.13;4.63;;;;;;;-146.64;100.00;118402.03;5025881;28;20365;-80
2022/05/22 04:06:07;;;;;;;11.10;4.67;;;;;;;-146.64;100.00;118402.03;5063360;28;20139;-80
2022/05/22 04:08:33;;;;;;;11.30;5.35;;;;;;;-146.64;100.00;118402.03;5033955;28;20024;-80
2022/05/22 04:11:06;;;;;;;12.15;4.65;;;;;;;-146.64;100.00;118402.03;5036474;28;20094;-80
2022/05/22 04:13:31;;;;;;;9.32;5.00;;;;;;;-146.64;100.00;118402.03;5037781;28;20064;-79
2022/05/22 04:15:57;;;;;;;12.27;4.80;;;;;;;-146.64;100.00;118402.03;5049867;28;20105;-80
2022/05/22 04:18:22;;;;;;;8.73;4.53;;;;;;;-146.64;100.00;118402.03;5062372;28;20129;-80
2022/05/22 04:20:48;;;;;;;15.98;4.43;;;;;;;-146.64;100.00;118402.03;5048062;28;20124;-80
2022/05/22 04:25:59;;;;;;;15.35;4.68;;;;;;;-146.64;100.00;118402.03;5049330;28;20066;-80
2022/05/22 04:28:26;;;;;;;12.25;5.47;;;;;;;-146.64;100.00;118402.03;5049714;28;20056;-80
2022/05/22 04:30:52;;;;;;;14.25;4.97;;;;;;;-146.64;100.00;118402.03;5048714;28;20025;-79
2022/05/22 04:33:17;;;;;;;11.07;4.93;;;;;;;-146.64;100.00;118402.03;5051154;28;20071;-81
2022/05/22 04:35:43;;;;;;;10.93;4.65;;;;;;;-146.64;100.00;118402.03;5051240;28;20111;-80
2022/05/22 04:38:09;;;;;;;13.63;4.47;;;;;;;-146.64;100.00;118402.03;5048631;28;20112;-80
2022/05/22 04:40:35;;;;;;;13.73;4.95;;;;;;;-146.64;100.00;118402.03;5032148;28;20033;-80
2022/05/22 04:43:02;;;;;;;8.83;4.47;;;;;;;-146.64;100.00;118402.03;5052411;28;20024;-80
2022/05/22 04:45:27;;;;;;;12.20;5.00;;;;;;;-146.64;100.00;118402.03;5050120;28;20020;-81
2022/05/22 04:47:52;;;;;;;13.93;4.63;;;;;;;-146.64;100.00;118402.03;5044310;28;20430;-80
2022/05/22 04:50:18;;;;;;;9.23;4.38;;;;;;;-146.64;100.00;118402.03;5051928;28;20028;-79
2022/05/22 04:52:43;;;;;;;10.70;4.87;;;;;;;-146.64;100.00;118402.03;5051337;28;20481;-80
2022/05/22 04:55:09;;;;;;;12.93;4.53;;;;;;;-146.64;100.00;118402.03;5041535;28;20518;-80
2022/05/22 04:57:35;;;;;;;9.55;4.72;;;;;;;-146.64;100.00;118402.03;5031330;28;20463;-80
2022/05/22 05:00:01;;;;;;;8.85;4.70;;;;;;;-146.64;100.00;116534.28;5041083;28;20040;-80
2022/05/22 05:02:26;;;;;;;11.97;5.10;;;;;;;-146.64;100.00;117552.56;5050125;28;20025;-81
2022/05/22 05:04:55;;;;;;;18.70;5.90;;;;;;;-146.64;100.00;117581.78;5033360;28;20068;-81
2022/05/22 05:07:21;;;;;;;12.27;5.22;;;;;;;-146.64;100.00;118107.72;5060041;28;20416;-80
2022/05/22 05:09:48;;;;;;;9.07;5.30;;;;;;;-146.64;100.00;99212.25;5044817;28;20040;-81
2022/05/22 05:12:15;;;;;;;13.45;5.40;;;;;;;-146.64;100.00;106132.22;5049420;28;20052;-81
2022/05/22 05:14:41;;;;;;;8.32;4.80;;;;;;;-146.64;100.00;107730.78;5063760;28;20037;-80
2022/05/22 05:17:08;;;;;;;11.97;4.93;;;;;;;-146.64;100.00;117331.34;5050331;28;20927;-81
2022/05/22 05:19:33;;;;;;;;;;;;;;;-146.64;100.00;116530.09;5069628;28;20089;-81
2022/05/22 05:21:58;;;;;;;9.02;4.38;;;;;;;-146.64;100.00;115195.03;5043388;28;19920;-82
2022/05/22 05:24:24;;;;;;;18.80;5.93;;;;;;;-146.64;100.00;113860.38;5050621;28;20035;-80
2022/05/22 05:26:50;;;;;;;11.57;5.20;;;;;;;-146.64;100.00;110392.34;5050256;28;20036;-80
2022/05/22 05:29:16;;;;;;;;;;;;;;;-146.64;100.00;103997.56;5070966;28;20066;-81
2022/05/22 05:31:41;;;;;;;11.48;6.05;;;;;;;-146.64;100.00;101070.00;5060707;28;19952;-80
2022/05/22 05:34:07;;;;;;;9.67;4.90;;;;;;;-146.64;100.00;90176.72;5039027;28;20082;-81
2022/05/22 05:36:33;;;;;;;14.30;4.90;;;;;;;-146.64;100.00;77460.91;5047549;28;20478;-82
2022/05/22 05:39:00;;;;;;;11.83;4.77;;;;;;;-146.64;100.00;58989.09;5053096;28;20048;-80
2022/05/22 05:41:26;;;;;;;11.70;4.55;;;;;;;-146.64;100.00;36334.50;5053292;28;20289;-81
2022/05/22 05:43:51;;;;;;;15.90;5.90;;;;;;;-146.64;100.00;34825.56;5054358;28;20491;-82
2022/05/22 05:46:17;;;;;;;20.67;6.17;;;;;;;-146.64;100.00;35105.63;5037114;28;20057;-83
2022/05/22 05:48:42;;;;;;;15.40;5.07;;;;;;;-146.64;100.00;35851.91;5037138;28;20039;-81
2022/05/22 05:51:07;;;;;;;18.27;6.17;;;;;;;-146.64;100.00;36027.75;5032061;28;20025;-81
2022/05/22 05:53:33;;;;;;;12.83;5.00;;;;;;;-146.64;100.00;36549.25;5070041;28;20032;-81
2022/05/22 05:56:05;;;;;;;13.83;5.07;;;;;;;-146.64;100.00;35864.19;5051592;28;20067;-82
2022/05/22 05:58:30;;;;;;;17.42;6.13;;;;;;;-146.64;100.00;36363.13;5037051;28;20031;-82
2022/05/22 06:00:56;;;;;;;13.10;5.40;;;;;;;-146.64;100.00;36776.25;5069027;28;20364;-82
2022/05/22 06:03:21;;;;;;;16.50;5.73;;;;;;;-146.64;100.00;36978.75;5064686;28;20031;-83
2022/05/22 06:05:48;;;;;;;11.53;5.40;;;;;;;-146.64;100.00;37042.16;5052968;28;20020;-82
2022/05/22 06:08:13;;;;;;;14.73;5.40;;;;;;;-146.64;100.00;36886.72;5052193;28;20028;-82
2022/05/22 06:10:39;;;;;;;14.07;5.40;;;;;;;-146.64;100.00;37054.44;5065453;28;20336;-82
2022/05/22 06:13:05;;;;;;;19.00;5.87;;;;;;;-146.64;100.00;36761.94;5064802;28;20024;-81
2022/05/22 06:15:30;;;;;;;14.18;5.57;;;;;;;-146.64;100.00;37033.97;5066380;28;20020;-82
2022/05/22 06:17:58;;;;;;;14.67;5.40;;;;;;;-146.64;100.00;36907.16;5061422;28;20037;-82
2022/05/22 06:20:23;;;;;;;16.65;5.90;;;;;;;-146.64;100.00;36886.72;5051946;28;20536;-82
2022/05/22 06:22:49;;;;;;;11.83;5.07;;;;;;;-146.64;100.00;36860.13;5065333;28;20021;-82
2022/05/22 06:25:15;;;;;;;11.00;4.67;;;;;;;-146.64;100.00;36948.06;5049943;28;20078;-82
2022/05/22 06:27:41;;;;;;;13.55;5.60;;;;;;;-146.64;100.00;36837.63;5066835;28;20111;-81
2022/05/22 06:30:07;;;;;;;12.30;5.70;;;;;;;-146.64;100.00;36847.84;5051693;28;20116;-82
2022/05/22 06:32:32;;;;;;;14.25;5.57;;;;;;;-146.64;100.00;36898.97;5060210;28;20033;-82
2022/05/22 06:34:58;;;;;;;12.70;4.97;;;;;;;-146.64;100.00;36854.00;5051037;28;20302;-83
2022/05/22 06:37:24;;;;;;;12.50;5.35;;;;;;;-146.64;100.00;36833.53;5065734;28;20044;-82
2022/05/22 06:39:49;;;;;;;19.33;5.32;;;;;;;-146.64;100.00;36719.00;5052312;28;20065;-83
2022/05/22 06:42:23;;;;;;;14.48;5.53;;;;;;;-146.64;100.00;36721.03;5054919;28;20028;-83
2022/05/22 06:44:58;;;;;;;12.73;5.25;;;;;;;-146.64;100.00;36686.28;5052517;28;20031;-83
2022/05/22 06:47:25;;;;;;;13.23;5.03;;;;;;;-146.64;99.27;36854.00;5045723;28;20049;-83
2022/05/22 06:49:51;;;;;;;28.08;5.85;;;;;;;-146.64;100.00;37033.97;5032272;28;20097;-83
2022/05/22 06:52:17;;;;;;;18.33;5.82;;;;;;;-146.64;100.00;36903.06;5052033;28;20051;-82
2022/05/22 06:54:42;;;;;;;12.77;4.90;;;;;;;-146.64;100.00;36821.25;5067899;28;20032;-83
2022/05/22 06:57:07;;;;;;;12.50;5.47;;;;;;;-146.64;100.00;36804.91;5035083;28;20483;-82
2022/05/22 06:59:33;;;;;;;18.27;6.17;;;;;;;-146.64;100.00;36714.91;5031838;28;20016;-81
2022/05/22 07:02:00;;;;;;;19.83;6.05;;;;;;;-146.64;100.00;36766.03;5064729;28;20044;-83
2022/05/22 07:04:26;;;;;;;21.65;5.90;;;;;;;-146.64;94.71;36743.53;5053415;28;20036;-83
2022/05/22 07:06:51;;;;;;;9.18;4.82;;;;;;;-146.64;100.00;36641.28;5065105;28;20047;-83
2022/05/22 07:09:17;;;;;;;14.60;6.27;;;;;;;-146.64;100.00;36694.47;5057390;28;20107;-83
2022/05/22 07:11:42;;;;;;;16.10;5.40;;;;;;;-146.64;100.00;36903.06;5048738;28;20020;-82
2022/05/22 07:14:10;;;;;;;13.45;4.95;;;;;;;-146.64;98.93;36993.06;5032163;28;20040;-83
2022/05/22 07:16:37;;;;;;;15.18;5.15;;;;;;;-146.64;92.80;36821.25;5044537;28;20051;-82
2022/05/22 07:19:03;;;;;;;15.18;5.45;;;;;;;-146.64;93.65;36843.75;5051440;28;20024;-83
2022/05/22 07:21:28;;;;;;;14.25;5.18;;;;;;;-146.64;94.01;36968.53;5049778;28;20032;-82
2022/05/22 07:23:54;;;;;;;17.57;5.90;;;;;;;-146.64;93.97;36968.53;5029457;28;20048;-82
2022/05/22 07:26:21;;;;;;;14.20;5.47;;;;;;;-146.64;95.81;36968.53;5044879;28;20024;-83
2022/05/22 07:28:47;;;;;;;18.33;5.85;;;;;;;-146.64;89.79;36943.97;5051431;28;20028;-83
2022/05/22 07:31:16;;;;;;;10.68;5.15;;;;;;;-146.64;95.12;37001.25;5048060;28;20383;-83
2022/05/22 07:33:42;;;;;;;13.00;4.45;;;;;;;-146.64;91.85;36997.16;5065339;28;20124;-82
2022/05/22 07:36:07;;;;;;;14.60;5.53;;;;;;;-146.64;93.34;37040.13;5043824;28;20033;-82
2022/05/22 07:38:33;;;;;;;18.73;6.03;;;;;;;-146.64;94.76;37072.84;5068456;28;20040;-81
2022/05/22 07:40:58;;;;;;;15.27;5.43;;;;;;;-146.64;90.21;37052.38;5033620;28;20049;-80
2022/05/22 07:43:23;;;;;;;13.13;5.07;;;;;;;-146.64;86.19;37132.16;5047330;28;20071;-82
2022/05/22 07:45:49;;;;;;;12.57;4.70;;;;;;;-146.64;84.26;37263.06;5066032;28;20052;-81
2022/05/22 07:48:15;;;;;;;15.63;4.33;;;;;;;-146.64;89.66;37115.78;5067411;28;20515;-86
2022/05/22 07:50:41;;;;;;;17.75;4.07;;;;;;;-146.64;86.16;37177.16;5061762;28;20033;-85
2022/05/22 07:53:06;;;;;;;17.10;4.57;;;;;;;-146.64;80.99;37389.91;5046654;28;20036;-85
2022/05/22 07:55:32;;;;;;;15.23;4.50;;;;;;;-146.64;86.18;37299.88;5031560;28;20086;-86
2022/05/22 07:57:57;;;;;;;16.93;3.50;;;;;;;-146.64;87.42;37209.88;5054245;28;20043;-82
2022/05/22 08:00:23;;;;;;;8.93;3.13;;;;;;;-146.64;82.10;37316.25;5050056;28;20035;-83
2022/05/22 08:02:48;;;;;;;18.83;3.27;;;;;;;-146.64;80.16;37303.97;5069701;28;20064;-84
2022/05/22 08:05:17;;;;;;;11.07;3.33;;;;;;;-146.64;75.36;37422.63;5072407;28;20031;-84
2022/05/22 08:07:43;;;;;;;11.13;3.63;;;;;;;-146.64;80.74;37377.63;5063218;28;20031;-85
2022/05/22 08:10:09;;;;;;;10.23;3.45;;;;;;;-146.64;85.38;37295.81;5065558;28;20020;-83
2022/05/22 08:12:37;;;;;;;;;;;;;;;-146.64;85.69;37373.53;5066881;28;20392;-84
2022/05/22 08:15:02;;;;;;;16.48;3.85;;;;;;;-146.64;83.87;37271.25;5068071;28;19916;-84
2022/05/22 08:17:28;;;;;;;11.07;3.20;;;;;;;-146.64;80.72;37346.94;5045401;28;20063;-83
2022/05/22 08:19:53;;;;;;;10.93;3.63;;;;;;;-146.64;78.81;37381.72;5035813;28;20055;-84
2022/05/22 08:22:19;;;;;;;18.23;4.50;;;;;;;-146.64;84.25;37443.09;5044946;28;20720;-86
2022/05/22 08:24:44;;;;;;;15.30;4.87;;;;;;;-146.64;86.79;37379.66;5042075;28;20108;-84
2022/05/22 08:27:10;;;;;;;14.33;4.57;;;;;;;-146.64;82.61;37209.88;5040428;28;20098;-85
2022/05/22 08:29:35;;;;;;;11.43;4.43;;;;;;;-146.64;85.89;37087.16;5062506;28;20029;-83
2022/05/22 08:32:00;;;;;;;13.17;3.90;;;;;;;-146.64;75.66;37369.44;5059982;28;20032;-83
2022/05/22 08:34:26;;;;;;;10.00;3.73;;;;;;;-146.64;74.38;37504.44;5067005;28;20029;-82
2022/05/22 08:36:54;;;;;;;12.30;3.63;;;;;;;-146.64;86.07;37220.13;5010788;28;20472;-82
2022/05/22 08:39:19;;;;;;;12.80;3.75;;;;;;;-146.64;80.03;37410.34;5051712;28;20063;-81
2022/05/22 08:41:48;;;;;;;13.87;3.60;;;;;;;-146.64;82.15;37230.34;5026258;28;20032;-82
2022/05/22 08:44:31;;;;;;;8.40;2.80;;;;;;;-146.64;71.23;37498.31;5045274;28;20066;-80
2022/05/22 08:47:22;;;;;;;11.75;3.22;;;;;;;-146.64;75.67;37443.09;5047335;28;20025;-81
2022/05/22 08:49:49;;;;;;;11.60;3.13;;;;;;;-146.64;70.02;37549.47;5046241;28;20028;-82
2022/05/22 08:52:19;;;;;;;9.85;3.00;;;;;;;-146.64;74.22;37463.53;5045724;28;20131;-82
2022/05/22 08:54:56;;;;;;;12.93;2.50;;;;;;;-146.64;70.01;37479.91;5061931;28;20028;-83
2022/05/22 09:00:10;;;;;;;12.38;2.90;;;;;;;-146.64;70.69;37582.19;5052967;28;20063;-83
2022/05/22 09:02:42;;;;;;;9.25;2.40;;;;;;;-146.64;68.68;37434.91;5071984;28;20425;-83
2022/05/22 09:05:15;;;;;;;11.88;2.83;;;;;;;-146.64;72.20;37453.31;5035710;28;20053;-83
2022/05/22 09:08:01;;;;;;;13.00;2.80;;;;;;;-146.64;67.59;37594.47;5055306;28;20032;-83
2022/05/22 09:10:39;;;;;;;12.77;2.92;;;;;;;-146.64;68.23;37508.53;5042090;28;20107;-82
2022/05/22 09:13:14;;;;;;;7.22;2.28;;;;;;;-146.64;61.66;37621.06;5055600;28;20462;-82
2022/05/22 09:15:45;;;;;;;11.57;3.65;;;;;;;-146.64;67.59;37389.91;5041837;28;20035;-83
2022/05/22 09:18:18;;;;;;;11.40;3.50;;;;;;;-146.64;68.28;37412.41;5048269;28;20060;-82
2022/05/22 09:20:56;;;;;;;12.85;3.75;;;;;;;-146.64;66.89;37342.84;5049083;28;20020;-82
2022/05/22 09:23:37;;;;;;;14.10;2.92;;;;;;;-146.64;66.87;37336.72;5052211;28;20058;-83
2022/05/22 09:26:12;;;;;;;7.63;3.22;;;;;;;-146.64;65.43;37394.00;5064186;28;20032;-83
2022/05/22 09:28:47;;;;;;;14.27;3.20;;;;;;;-146.64;68.45;37414.44;5050509;28;20037;-83
2022/05/22 09:31:39;;;;;;;10.52;2.88;;;;;;;-146.64;62.16;37381.72;5049730;28;20070;-83
2022/05/22 09:34:20;;;;;;;10.13;2.60;;;;;;;-146.64;nan;37316.25;5035055;28;20552;-83
2022/05/22 09:36:55;;;;;;;7.30;2.80;;;;;;;-146.64;66.06;37365.34;5067723;28;20371;-82
2022/05/22 09:39:55;;;;;;;7.18;2.28;;;;;;;-146.64;64.49;37336.72;5047006;28;20492;-81
2022/05/22 09:42:43;;;;;;;9.95;3.13;;;;;;;-146.64;64.11;37293.75;5050354;28;20028;-81
2022/05/22 09:45:29;;;;;;;15.77;3.58;;;;;;;-146.64;62.43;37310.13;5067527;28;20028;-82
2022/05/22 09:48:13;;;;;;;11.05;3.20;;;;;;;-146.64;66.66;37246.72;5062676;28;20183;-79
2022/05/22 09:50:48;;;;;;;5.53;2.50;;;;;;;-146.64;63.49;37132.16;5042921;28;20376;-81
2022/05/22 09:53:39;;;;;;;12.00;3.58;;;;;;;-146.64;58.63;37164.88;5067815;28;20024;-79
2022/05/22 09:56:21;;;;;;;14.60;3.08;;;;;;;-146.64;58.73;37234.44;5053493;28;20111;-81
2022/05/22 09:59:17;;;;;;;10.65;2.67;;;;;;;-146.64;59.66;37240.56;5060310;28;20056;-81
2022/05/22 10:01:45;;;;;;;7.97;2.05;;;;;;;-146.64;54.50;37209.88;5038561;28;20029;-81
2022/05/22 10:04:10;;;;;;;6.65;2.50;;;;;;;-146.64;54.44;37226.25;5065112;28;20051;-81
2022/05/22 10:06:50;;;;;;;11.17;3.27;;;;;;;-146.64;59.00;37111.72;5064008;28;20123;-81
2022/05/22 10:09:33;;;;;;;10.13;3.35;;;;;;;-146.64;57.19;37029.88;5055883;28;20575;-80
2022/05/22 10:12:17;;;;;;;8.82;3.42;;;;;;;-146.64;56.38;37187.38;5036837;28;20131;-81
2022/05/22 10:14:54;;;;;;;8.55;3.53;;;;;;;-146.64;56.25;37234.44;5070269;28;20032;-80
2022/05/22 10:17:53;;;;;;;9.63;3.10;;;;;;;-146.64;57.62;37140.34;5057861;28;20368;-81
2022/05/22 10:20:23;;;;;;;8.82;3.55;;;;;;;-146.64;57.99;37238.53;5073727;28;20058;-80
2022/05/22 10:23:06;;;;;;;9.93;4.18;;;;;;;-146.64;57.96;37213.97;5074010;28;20032;-81
2022/05/22 10:25:34;;;;;;;12.90;3.85;;;;;;;-146.64;58.79;37144.44;5074032;28;20055;-82
2022/05/22 10:28:03;;;;;;;12.35;3.03;;;;;;;-146.64;60.34;37005.34;5074351;28;20044;-82
2022/05/22 10:30:37;;;;;;;8.80;3.50;;;;;;;-146.64;60.73;37058.53;5059073;28;20475;-81
2022/05/22 10:33:14;;;;;;;10.60;3.80;;;;;;;-146.64;58.08;36970.56;5040224;28;20044;-81
2022/05/22 10:35:57;;;;;;;9.32;3.80;;;;;;;-146.64;59.22;37048.28;5058076;28;20150;-82
2022/05/22 10:38:26;;;;;;;9.73;3.28;;;;;;;-146.64;59.62;37138.28;5075059;28;20047;-81
2022/05/22 10:43:40;;;;;;;14.13;3.92;;;;;;;-146.64;57.77;36907.16;5040406;28;20091;-80
2022/05/22 10:46:06;;;;;;;11.98;3.20;;;;;;;-146.64;54.85;36923.53;5019799;28;20107;-82
2022/05/22 10:48:32;;;;;;;12.60;3.30;;;;;;;-146.64;57.10;36864.22;5023933;28;20021;-82
2022/05/22 10:51:01;;;;;;;10.00;2.97;;;;;;;-146.64;55.17;36780.34;5035045;28;20029;-82
2022/05/22 10:53:32;;;;;;;11.50;3.92;;;;;;;-146.64;54.33;36882.63;5056149;28;20044;-82
2022/05/22 10:56:17;;;;;;;10.48;3.25;;;;;;;-146.64;53.90;36874.44;5064471;28;20032;-81
2022/05/22 10:58:59;;;;;;;8.90;3.15;;;;;;;-146.64;55.09;36815.13;5042622;28;20036;-81
2022/05/22 11:01:27;;;;;;;8.18;3.33;;;;;;;-146.64;55.87;36772.19;5039881;28;20035;-81
2022/05/22 11:04:07;;;;;;;12.02;3.50;;;;;;;-146.64;56.63;36618.78;5035252;28;20060;-80
2022/05/22 11:06:53;;;;;;;10.50;3.40;;;;;;;-146.64;54.47;36737.41;5034611;28;20079;-80
2022/05/22 11:09:30;;;;;;;8.50;2.88;;;;;;;-146.64;53.79;36864.22;5034218;28;20068;-81
2022/05/22 11:12:10;;;;;;;10.68;3.20;;;;;;;-146.64;55.27;36833.53;5017654;28;20152;-81
2022/05/22 11:14:36;;;;;;;10.43;3.42;;;;;;;-146.64;54.48;36743.53;5044047;28;20093;-82
2022/05/22 11:17:24;;;;;;;12.60;3.15;;;;;;;-146.64;53.46;36770.13;5075710;28;20083;-81
2022/05/22 11:19:54;;;;;;;8.70;3.38;;;;;;;-146.64;55.11;36729.22;5073663;28;20024;-81
2022/05/22 11:22:38;;;;;;;10.18;3.60;;;;;;;-146.64;55.52;36770.13;5056266;28;20094;-81